Time;durP1;ratioP1;P1;durP2;ratioP2;P2;SDS_P1;SDS_P2;PMS_P1;PMS_P2;Temp;Humidity;BMP_temperature;BMP_pressure;BME280_temperature;BME280_humidity;BME280_pressure;Samples;Min_cycle;Max_cycle;Signal;HPM_P1;HPM_P2
2022/01/03 00:02:20;;;;;;;;;;;;;;;6.32;78.23;100243.97;5070922;28;19921;-87
2022/01/03 00:04:46;;;;;;;;;;;;;;;6.38;77.66;100241.44;5071672;28;19927;-87
2022/01/03 00:07:11;;;;;;;;;;;;;;;6.32;78.16;100236.13;5058805;28;19925;-85
2022/01/03 00:09:37;;;;;;;;;;;;;;;6.30;77.56;100233.50;5043245;28;19917;-85
2022/01/03 00:12:02;;;;;;;;;;;;;;;6.26;77.48;100243.06;5044233;28;19956;-87
2022/01/03 00:14:29;;;;;;;;;;;;;;;6.30;77.28;100236.09;5042961;28;19936;-86
2022/01/03 00:16:54;;;;;;;;;;;;;;;6.18;77.06;100234.25;5047426;28;21532;-86
2022/01/03 00:19:19;;;;;;;;;;;;;;;6.11;77.23;100232.41;5069899;28;19916;-87
2022/01/03 00:21:45;;;;;;;;;;;;;;;6.16;77.05;100222.84;5068646;28;19916;-86
2022/01/03 00:24:12;;;;;;;;;;;;;;;6.35;76.54;100215.19;5063982;28;20062;-86
2022/01/03 00:26:38;;;;;;;;;;;;;;;6.12;77.31;100205.38;5048692;28;20327;-88
2022/01/03 00:29:15;;;;;;;;;;;;;;;6.18;76.95;100196.69;5049196;28;19926;-88
2022/01/03 00:31:41;;;;;;;;;;;;;;;6.06;77.69;100187.81;5049159;28;19928;-87
2022/01/03 00:34:08;;;;;;;;;;;;;;;5.80;78.21;100186.63;5082624;28;20003;-88
2022/01/03 00:36:35;;;;;;;;;;;;;;;5.56;79.27;100174.97;5068046;28;20636;-88
2022/01/03 00:39:01;;;;;;;;;;;;;;;5.70;79.54;100167.28;5055857;28;19924;-87
2022/01/03 00:41:26;;;;;;;;;;;;;;;5.61;79.23;100175.91;5047971;28;20408;-88
2022/01/03 00:43:53;;;;;;;;;;;;;;;5.61;78.38;100162.84;5048047;28;19924;-87
2022/01/03 00:46:18;;;;;;;;;;;;;;;5.52;79.10;100163.59;5066002;28;19924;-87
2022/01/03 00:48:44;;;;;;;;;;;;;;;5.34;78.43;100165.94;5042638;28;19970;-87
2022/01/03 00:51:11;;;;;;;;;;;;;;;5.18;79.70;100172.72;5058362;28;19927;-87
2022/01/03 00:53:36;;;;;;;;;;;;;;;5.15;79.49;100167.44;5028416;28;19971;-88
2022/01/03 00:56:08;;;;;;;;;;;;;;;5.28;79.23;100158.03;5045075;28;19924;-87
2022/01/03 00:58:35;;;;;;;;;;;;;;;5.03;78.44;100168.13;5049079;28;19973;-87
2022/01/03 01:01:01;;;;;;;;;;;;;;;5.28;78.52;100163.25;5047433;28;19920;-86
2022/01/03 01:03:32;;;;;;;;;;;;;;;5.35;77.77;100149.41;5047532;28;20140;-86
2022/01/03 01:05:59;;;;;;;;;;;;;;;5.06;79.08;100152.47;5064254;28;19924;-88
2022/01/03 01:08:26;;;;;;;;;;;;;;;5.04;79.15;100154.22;4991910;28;2047888;-87
2022/01/03 01:10:52;;;;;;;;;;;;;;;4.92;79.71;100156.63;5068368;28;19932;-87
2022/01/03 01:13:19;;;;;;;;;;;;;;;5.07;79.33;100156.88;5043341;28;19929;-85
2022/01/03 01:15:44;;;;;;;;;;;;;;;5.19;79.28;100162.28;5070397;28;19971;-85
2022/01/03 01:18:09;;;;;;;;;;;;;;;5.34;78.68;100164.19;5048175;28;19921;-87
2022/01/03 01:20:36;;;;;;;;;;;;;;;5.51;78.16;100151.34;5041667;28;20664;-86
2022/01/03 01:23:04;;;;;;;;;;;;;;;5.51;78.26;100156.59;5046251;28;19966;-88
2022/01/03 01:27:56;;;;;;;;;;;;;;;5.69;78.37;100142.84;5069222;28;20012;-89
2022/01/03 01:30:27;;;;;;;;;;;;;;;5.57;78.33;100140.94;5059515;28;19925;-86
2022/01/03 01:32:55;;;;;;;;;;;;;;;5.67;78.25;100133.22;5050637;28;20410;-90
2022/01/03 01:35:23;;;;;;;;;;;;;;;5.66;77.96;100127.13;5050192;28;19966;-90
2022/01/03 01:37:52;;;;;;;;;;;;;;;5.77;78.15;100121.13;5065709;28;20023;-88
2022/01/03 01:40:18;;;;;;;;;;;;;;;5.81;77.87;100123.81;5069540;28;19921;-89
2022/01/03 01:42:45;;;;;;;;;;;;;;;5.75;77.95;100113.25;5066199;28;19919;-89
2022/01/03 01:45:11;;;;;;;;;;;;;;;5.64;77.64;100105.28;5056450;28;19959;-89
2022/01/03 01:47:38;;;;;;;;;;;;;;;5.53;77.54;100097.31;5083604;28;19968;-87
2022/01/03 01:50:04;;;;;;;;;;;;;;;5.47;78.68;100092.00;5066446;28;20317;-88
2022/01/03 01:52:33;;;;;;;;;;;;;;;5.35;79.60;100079.63;5049951;28;20387;-89
2022/01/03 01:55:00;;;;;;;;;;;;;;;5.53;79.14;100078.09;5049291;28;20374;-87
2022/01/03 01:57:35;;;;;;;;;;;;;;;5.49;80.19;100081.56;5047659;28;19921;-89
2022/01/03 02:00:13;;;;;;;;;;;;;;;5.84;79.03;100096.75;5049982;28;19928;-91
2022/01/03 02:02:46;;;;;;;;;;;;;;;5.85;79.00;100088.91;5081849;28;19916;-88
2022/01/03 02:05:18;;;;;;;;;;;;;;;5.89;78.97;100075.00;5059069;28;20412;-88
2022/01/03 02:07:47;;;;;;;;;;;;;;;5.98;77.90;100068.13;5068530;28;19929;-88
2022/01/03 02:10:14;;;;;;;;;;;;;;;5.86;78.63;100066.25;5063630;28;20307;-87
2022/01/03 02:12:46;;;;;;;;;;;;;;;5.81;78.81;100057.44;5049465;28;19967;-87
2022/01/03 02:15:13;;;;;;;;;;;;;;;5.74;79.02;100067.00;5070543;28;19990;-88
2022/01/03 02:17:39;;;;;;;;;;;;;;;5.75;79.00;100060.91;5060712;28;19932;-85
2022/01/03 02:20:09;;;;;;;;;;;;;;;5.70;79.42;100057.34;5028911;28;19921;-87
2022/01/03 02:22:39;;;;;;;;;;;;;;;5.66;78.85;100056.44;5026631;28;19917;-86
2022/01/03 02:25:06;;;;;;;;;;;;;;;5.78;78.98;100040.00;5049966;28;20052;-87
2022/01/03 02:27:32;;;;;;;;;;;;;;;5.71;78.11;100031.19;5061225;28;19963;-85
2022/01/03 02:29:57;;;;;;;;;;;;;;;5.44;79.09;100020.41;5062177;28;19997;-88
2022/01/03 02:32:23;;;;;;;;;;;;;;;5.46;78.75;100037.91;5047194;28;20394;-86
2022/01/03 02:34:48;;;;;;;;;;;;;;;5.75;77.89;100032.09;5049305;28;19918;-87
2022/01/03 02:37:14;;;;;;;;;;;;;;;5.67;78.25;100026.78;5057256;28;20013;-86
2022/01/03 02:39:40;;;;;;;;;;;;;;;5.23;78.21;100024.56;5067933;28;19920;-86
2022/01/03 02:42:06;;;;;;;;;;;;;;;5.04;79.46;100013.00;5068867;28;19921;-85
2022/01/03 02:44:31;;;;;;;;;;;;;;;5.19;79.54;100009.72;5040233;28;19921;-87
2022/01/03 02:46:56;;;;;;;;;;;;;;;5.37;79.50;100009.88;5043975;28;19921;-87
2022/01/03 02:49:22;;;;;;;;;;;;;;;5.18;78.90;100018.41;5047295;28;19921;-90
2022/01/03 02:51:47;;;;;;;;;;;;;;;5.10;79.21;100020.91;5047281;28;19920;-87
2022/01/03 02:54:13;;;;;;;;;;;;;;;4.99;79.50;100033.84;5046361;28;19917;-89
2022/01/03 02:56:41;;;;;;;;;;;;;;;5.13;79.43;100041.00;5045839;28;19917;-89
2022/01/03 02:59:14;;;;;;;;;;;;;;;5.29;79.24;100063.00;5048752;28;19924;-88
2022/01/03 03:01:46;;;;;;;;;;;;;;;5.29;78.90;100052.53;5067592;28;20303;-88
2022/01/03 03:04:12;;;;;;;;;;;;;;;5.47;78.34;100044.00;5060177;28;19928;-88
2022/01/03 03:06:38;;;;;;;;;;;;;;;5.45;77.85;100020.44;5048578;28;19924;-88
2022/01/03 03:09:05;;;;;;;;;;;;;;;5.55;77.94;100037.13;5064697;28;19924;-87
2022/01/03 03:11:34;;;;;;;;;;;;;;;5.62;78.25;100038.06;5048597;28;19928;-89
2022/01/03 03:14:00;;;;;;;;;;;;;;;5.49;78.16;100039.69;5047777;28;19917;-89
2022/01/03 03:16:25;;;;;;;;;;;;;;;4.86;79.67;100049.38;5048867;28;19927;-88
2022/01/03 03:18:51;;;;;;;;;;;;;;;4.64;81.50;100055.16;5048185;28;20641;-88
2022/01/03 03:21:16;;;;;;;;;;;;;;;4.76;81.03;100058.81;5067464;28;20015;-87
2022/01/03 03:23:41;;;;;;;;;;;;;;;4.82;81.77;100058.91;5059076;28;19932;-88
2022/01/03 03:26:08;;;;;;;;;;;;;;;4.84;81.43;100049.34;5051210;28;19924;-87
2022/01/03 03:28:33;;;;;;;;;;;;;;;4.80;81.11;100048.44;5068670;28;20023;-87
2022/01/03 03:30:59;;;;;;;;;;;;;;;4.48;82.51;100048.81;5050391;28;19999;-87
2022/01/03 03:33:24;;;;;;;;;;;;;;;4.64;81.94;100028.16;5048285;28;20020;-87
2022/01/03 03:35:51;;;;;;;;;;;;;;;4.80;82.10;100024.00;5050018;28;19916;-86
2022/01/03 03:38:17;;;;;;;;;;;;;;;4.95;80.47;100024.22;5067261;28;19924;-86
2022/01/03 03:40:45;;;;;;;;;;;;;;;4.90;80.59;100032.88;5052750;28;19990;-86
2022/01/03 03:43:11;;;;;;;;;;;;;;;4.65;81.41;100022.94;5047355;28;19921;-85
2022/01/03 03:45:36;;;;;;;;;;;;;;;4.83;81.12;100030.19;5047530;28;19921;-87
2022/01/03 03:48:02;;;;;;;;;;;;;;;5.03;79.77;100024.31;5047348;28;19916;-86
2022/01/03 03:50:27;;;;;;;;;;;;;;;5.26;79.83;100014.13;5047700;28;19939;-87
2022/01/03 03:52:53;;;;;;;;;;;;;;;5.05;79.76;99999.09;5040222;28;19943;-87
2022/01/03 03:55:18;;;;;;;;;;;;;;;4.98;79.99;100005.06;5051269;28;20431;-86
2022/01/03 03:57:43;;;;;;;;;;;;;;;4.86;80.33;100000.56;5046867;28;19927;-87
2022/01/03 04:00:11;;;;;;;;;;;;;;;4.92;79.49;100002.38;5039622;28;19921;-86
2022/01/03 04:02:36;;;;;;;;;;;;;;;4.88;79.48;99991.03;5051107;28;19921;-86
2022/01/03 04:05:02;;;;;;;;;;;;;;;4.78;80.49;99989.13;5050031;28;20344;-88
2022/01/03 04:07:27;;;;;;;;;;;;;;;4.94;80.16;99988.50;5048195;28;19932;-89
2022/01/03 04:09:53;;;;;;;;;;;;;;;4.92;79.81;99989.31;5052032;28;19920;-87
2022/01/03 04:12:18;;;;;;;;;;;;;;;4.87;79.76;99994.47;5051068;28;19925;-87
2022/01/03 04:14:44;;;;;;;;;;;;;;;4.88;80.08;99983.19;5052100;28;20012;-88
2022/01/03 04:17:10;;;;;;;;;;;;;;;4.83;79.85;99972.66;5030336;28;19997;-87
2022/01/03 04:19:35;;;;;;;;;;;;;;;4.55;81.42;99976.63;5030835;28;19921;-87
2022/01/03 04:22:01;;;;;;;;;;;;;;;4.35;82.23;99962.41;5045243;28;19927;-88
2022/01/03 04:24:26;;;;;;;;;;;;;;;4.35;82.20;99959.81;5050511;28;19921;-86
2022/01/03 04:26:51;;;;;;;;;;;;;;;4.31;81.98;99977.16;5048379;28;19920;-86
2022/01/03 04:29:17;;;;;;;;;;;;;;;4.04;82.65;99978.47;5050335;28;19927;-87
2022/01/03 04:31:42;;;;;;;;;;;;;;;3.93;83.17;99970.47;5051421;28;20004;-87
2022/01/03 04:34:08;;;;;;;;;;;;;;;4.24;82.64;99970.97;5042188;28;20489;-88
2022/01/03 04:36:34;;;;;;;;;;;;;;;4.30;82.73;99973.66;5037236;28;20053;-87
2022/01/03 04:38:59;;;;;;;;;;;;;;;4.54;81.98;99981.81;5045609;28;20414;-87
2022/01/03 04:41:25;;;;;;;;;;;;;;;4.72;81.01;99969.00;5044995;28;19920;-88
2022/01/03 04:43:50;;;;;;;;;;;;;;;4.94;80.12;99977.13;5047770;28;19916;-88
2022/01/03 04:46:15;;;;;;;;;;;;;;;4.82;79.69;99990.94;5037623;28;19931;-87
2022/01/03 04:48:41;;;;;;;;;;;;;;;4.64;79.65;99991.56;5026552;28;20022;-87
2022/01/03 04:51:07;;;;;;;;;;;;;;;4.61;80.77;99981.94;5036059;28;20412;-87
2022/01/03 04:53:39;;;;;;;;;;;;;;;4.70;80.35;99978.59;5029635;28;19925;-88
2022/01/03 04:56:05;;;;;;;;;;;;;;;4.71;79.80;99988.19;5034003;28;19932;-90
2022/01/03 04:58:30;;;;;;;;;;;;;;;4.72;80.02;99982.09;5025561;28;19921;-85
2022/01/03 05:00:55;;;;;;;;;;;;;;;4.72;79.31;99978.59;5030203;28;20397;-89
2022/01/03 05:03:21;;;;;;;;;;;;;;;4.55;79.09;99958.34;5044199;28;20522;-86
2022/01/03 05:05:46;;;;;;;;;;;;;;;4.68;79.60;99972.47;5041892;28;19921;-86
2022/01/03 05:08:11;;;;;;;;;;;;;;;4.75;79.06;99963.81;5043085;28;20031;-86
2022/01/03 05:10:37;;;;;;;;;;;;;;;4.82;79.10;99967.41;5036427;28;19931;-89
2022/01/03 05:13:02;;;;;;;;;;;;;;;4.28;80.22;99964.06;5033964;28;20019;-87
2022/01/03 05:15:27;;;;;;;;;;;;;;;4.05;81.80;99969.81;5045797;28;19921;-88
2022/01/03 05:17:53;;;;;;;;;;;;;;;4.37;80.80;99969.44;5045698;28;19920;-87
2022/01/03 05:20:18;;;;;;;;;;;;;;;4.52;80.56;99968.75;5044963;28;19925;-89
2022/01/03 05:22:44;;;;;;;;;;;;;;;4.53;80.94;99967.91;5044564;28;20093;-85
2022/01/03 05:25:11;;;;;;;;;;;;;;;4.41;80.56;99968.59;5045931;28;19924;-92
2022/01/03 05:27:37;;;;;;;;;;;;;;;4.42;79.99;99959.91;5046585;28;19939;-90
2022/01/03 05:30:03;;;;;;;;;;;;;;;4.29;80.44;99966.69;5043706;28;19948;-90
2022/01/03 05:32:29;;;;;;;;;;;;;;;4.14;81.36;99992.59;5046129;28;19920;-90
2022/01/03 05:34:54;;;;;;;;;;;;;;;4.29;81.22;99986.69;5041587;28;19927;-86
2022/01/03 05:37:20;;;;;;;;;;;;;;;4.49;80.93;99981.75;5046822;28;20016;-86
2022/01/03 05:39:45;;;;;;;;;;;;;;;4.57;80.51;99974.03;5030060;28;20019;-85
2022/01/03 05:42:10;;;;;;;;;;;;;;;4.46;81.28;99966.94;5046457;28;20031;-86
2022/01/03 05:44:36;;;;;;;;;;;;;;;4.75;80.17;99968.19;5045915;28;20004;-87
2022/01/03 05:47:01;;;;;;;;;;;;;;;4.44;80.67;99975.59;5046951;28;20534;-86
2022/01/03 05:49:26;;;;;;;;;;;;;;;4.79;80.21;99965.63;5031039;28;20379;-87
2022/01/03 05:51:52;;;;;;;;;;;;;;;4.84;79.84;99956.09;5046268;28;19921;-88
2022/01/03 05:54:17;;;;;;;;;;;;;;;4.66;80.45;99948.94;5046208;28;19921;-85
2022/01/03 05:56:43;;;;;;;;;;;;;;;4.86;79.94;99961.34;5045288;28;19928;-86
2022/01/03 05:59:08;;;;;;;;;;;;;;;4.81;79.63;99961.28;5029929;28;20484;-85
2022/01/03 06:01:37;;;;;;;;;;;;;;;4.73;80.15;99957.72;5025717;28;19984;-84
2022/01/03 06:04:21;;;;;;;;;;;;;;;4.60;80.56;99971.47;5025874;28;19921;-86
2022/01/03 06:06:55;;;;;;;;;;;;;;;4.65;80.53;99959.38;5025044;28;20397;-86
2022/01/03 06:09:21;;;;;;;;;;;;;;;4.85;80.40;99951.78;5041792;28;20023;-86
2022/01/03 06:11:46;;;;;;;;;;;;;;;5.13;79.84;99962.56;5025735;28;20043;-85
2022/01/03 06:14:16;;;;;;;;;;;;;;;5.14;79.67;99961.69;5042641;28;20018;-88
2022/01/03 06:16:42;;;;;;;;;;;;;;;4.95;79.80;99953.63;5042389;28;19928;-86
2022/01/03 06:19:07;;;;;;;;;;;;;;;4.95;80.62;99953.63;5059843;28;19924;-85
2022/01/03 06:21:35;;;;;;;;;;;;;;;5.04;80.29;99952.88;5046008;28;19974;-84
2022/01/03 06:24:01;;;;;;;;;;;;;;;4.98;80.97;99956.28;5043817;28;19955;-84
2022/01/03 06:26:26;;;;;;;;;;;;;;;4.88;81.45;99954.44;5042022;28;19927;-84
2022/01/03 06:28:52;;;;;;;;;;;;;;;4.97;81.81;99954.53;5063056;28;19924;-84
2022/01/03 06:31:17;;;;;;;;;;;;;;;4.89;81.66;99950.06;5060018;28;19938;-84
2022/01/03 06:33:42;;;;;;;;;;;;;;;4.83;81.76;99948.25;5065805;28;19930;-83
2022/01/03 06:36:08;;;;;;;;;;;;;;;5.08;81.79;99953.75;5065038;28;19952;-85
2022/01/03 06:38:33;;;;;;;;;;;;;;;5.14;81.60;99943.38;5047390;28;19948;-83
2022/01/03 06:40:58;;;;;;;;;;;;;;;5.05;82.04;99932.81;5043435;28;19932;-84
2022/01/03 06:43:24;;;;;;;;;;;;;;;5.11;82.07;99935.50;5044064;28;19925;-84
2022/01/03 06:45:49;;;;;;;;;;;;;;;5.24;81.54;99947.84;5044295;28;20376;-83
2022/01/03 06:48:14;;;;;;;;;;;;;;;5.29;82.28;99940.91;5060601;28;20381;-86
2022/01/03 06:50:40;;;;;;;;;;;;;;;5.16;82.69;99946.91;5055953;28;20389;-86
2022/01/03 06:53:05;;;;;;;;;;;;;;;5.23;82.27;99946.09;5044022;28;20478;-87
2022/01/03 06:55:30;;;;;;;;;;;;;;;5.45;81.49;99935.84;5044415;28;20417;-86
2022/01/03 06:57:56;;;;;;;;;;;;;;;5.46;80.95;99933.25;5059099;28;19924;-86
2022/01/03 07:00:21;;;;;;;;;;;;;;;5.59;80.50;99933.34;5058777;28;19932;-87
2022/01/03 07:02:46;;;;;;;;;;;;;;;5.70;81.15;99921.22;5045053;28;19948;-86
2022/01/03 07:05:12;;;;;;;;;;;;;;;5.74;81.46;99918.66;5044614;28;19917;-87
2022/01/03 07:07:38;;;;;;;;;;;;;;;5.87;80.91;99921.38;5045954;28;20037;-89
2022/01/03 07:10:04;;;;;;;;;;;;;;;5.71;81.30;99939.56;5043169;28;19986;-89
2022/01/03 07:12:29;;;;;;;;;;;;;;;5.56;81.80;99950.78;5043986;28;19961;-88
2022/01/03 07:20:06;;;;;;;;;;;;;;;5.48;82.44;99952.44;5044196;28;20022;-89
2022/01/03 07:22:37;;;;;;;;;;;;;;;5.51;82.36;99947.22;5044591;28;20000;-86
2022/01/03 07:25:03;;;;;;;;;;;;;;;5.25;82.85;99944.38;5044928;28;20016;-87
2022/01/03 07:27:28;;;;;;;;;;;;;;;5.33;82.29;99942.72;5040348;28;20595;-87
2022/01/03 07:29:54;;;;;;;;;;;;;;;5.40;82.42;99945.41;5061201;28;19925;-86
2022/01/03 07:32:20;;;;;;;;;;;;;;;5.59;81.82;99954.28;5065635;28;19982;-87
2022/01/03 07:34:45;;;;;;;;;;;;;;;5.49;82.32;99962.06;5066877;28;19916;-87
2022/01/03 07:37:11;;;;;;;;;;;;;;;5.64;82.23;99970.91;5050734;28;20015;-87
2022/01/03 07:39:36;;;;;;;;;;;;;;;5.52;82.74;99966.44;5051316;28;19982;-89
2022/01/03 07:42:02;;;;;;;;;;;;;;;5.62;83.00;99967.41;5048562;28;19935;-89
2022/01/03 07:44:27;;;;;;;;;;;;;;;5.84;82.80;99961.50;5047451;28;19975;-88
2022/01/03 07:46:54;;;;;;;;;;;;;;;5.69;83.36;99957.00;5066615;28;19921;-91
2022/01/03 07:49:20;;;;;;;;;;;;;;;5.90;83.33;99953.72;5049449;28;19960;-89
2022/01/03 07:51:46;;;;;;;;;;;;;;;6.09;84.38;99953.88;5050800;28;19963;-90
2022/01/03 07:54:11;;;;;;;;;;;;;;;6.22;83.14;99954.84;5050166;28;20045;-89
2022/01/03 07:56:36;;;;;;;;;;;;;;;6.15;82.72;99960.88;5051229;28;19947;-88
2022/01/03 07:59:02;;;;;;;;;;;;;;;6.27;82.81;99959.25;5049911;28;20310;-87
2022/01/03 08:01:27;;;;;;;;;;;;;;;6.38;82.66;99956.69;5055477;28;20378;-88
2022/01/03 08:03:52;;;;;;;;;;;;;;;6.60;82.94;99955.06;5052751;28;19923;-87
2022/01/03 08:06:20;;;;;;;;;;;;;;;6.69;82.10;99946.38;5051217;28;19928;-87
2022/01/03 08:08:45;;;;;;;;;;;;;;;6.81;82.38;99932.44;5054199;28;19925;-89
2022/01/03 08:11:10;;;;;;;;;;;;;;;6.89;81.67;99925.50;5049927;28;19924;-86
2022/01/03 08:13:36;;;;;;;;;;;;;;;7.02;80.94;99929.03;5051072;28;20323;-87
2022/01/03 08:16:01;;;;;;;;;;;;;;;6.97;79.74;99944.75;5051206;28;20067;-88
2022/01/03 08:18:27;;;;;;;;;;;;;;;6.99;78.75;99934.25;5050618;28;19967;-87
2022/01/03 08:20:53;;;;;;;;;;;;;;;6.85;79.36;99933.34;5067791;28;19956;-87
2022/01/03 08:23:18;;;;;;;;;;;;;;;6.76;79.28;99928.94;5046836;28;20016;-88
2022/01/03 08:25:44;;;;;;;;;;;;;;;6.92;78.20;99921.97;5049673;28;20024;-88
2022/01/03 08:28:09;;;;;;;;;;;;;;;6.67;78.96;99921.03;5048956;28;19944;-89
2022/01/03 08:30:35;;;;;;;;;;;;;;;6.55;79.43;99920.09;5048711;28;19925;-86
2022/01/03 08:33:01;;;;;;;;;;;;;;;6.68;79.75;99915.78;5066749;28;19924;-87
2022/01/03 08:35:26;;;;;;;;;;;;;;;6.40;80.22;99904.28;5057951;28;19924;-87
2022/01/03 08:37:52;;;;;;;;;;;;;;;6.59;79.56;99895.63;5059966;28;20351;-89
2022/01/03 08:40:17;;;;;;;;;;;;;;;6.96;80.50;99900.16;5050585;28;20458;-87
2022/01/03 08:42:43;;;;;;;;;;;;;;;6.97;79.98;99897.53;5052083;28;20667;-88
2022/01/03 08:45:08;;;;;;;;;;;;;;;6.94;80.31;99889.66;5049094;28;20337;-89
2022/01/03 08:47:34;;;;;;;;;;;;;;;6.91;80.63;99889.66;5054455;28;20023;-87
2022/01/03 08:49:59;;;;;;;;;;;;;;;7.14;79.84;99894.94;5038750;28;20409;-86
2022/01/03 08:52:25;;;;;;;;;;;;;;;6.91;81.83;99888.78;5054428;28;20368;-85
2022/01/03 08:54:50;;;;;;;;;;;;;;;6.94;84.13;99883.53;5055826;28;20015;-88
2022/01/03 08:57:16;;;;;;;;;;;;;;;7.27;80.81;99864.34;5048743;28;19925;-88
2022/01/03 08:59:42;;;;;;;;;;;;;;;7.51;79.28;99870.50;5053540;28;19950;-90
2022/01/03 09:02:07;;;;;;;;;;;;;;;7.55;78.44;99869.63;5047719;28;19925;-94
2022/01/03 09:04:32;;;;;;;;;;;;;;;7.44;79.36;99853.88;5047452;28;19925;-93
2022/01/03 09:06:59;;;;;;;;;;;;;;;7.77;77.99;99851.22;5046257;28;20326;-86
2022/01/03 09:09:27;;;;;;;;;;;;;;;7.91;78.36;99857.38;5048988;28;19921;-93
2022/01/03 09:11:52;;;;;;;;;;;;;;;8.20;76.62;99865.19;5048196;28;19963;-91
2022/01/03 09:14:17;;;;;;;;;;;;;;;8.19;74.93;99859.94;5048838;28;19960;-90
2022/01/03 09:16:43;;;;;;;;;;;;;;;8.03;76.92;99859.97;5048067;28;20340;-89
2022/01/03 09:19:08;;;;;;;;;;;;;;;8.28;77.39;99852.03;5047576;28;19954;-90
2022/01/03 09:21:33;;;;;;;;;;;;;;;8.59;76.14;99857.19;5048370;28;19916;-96
2022/01/03 09:24:44;;;;;;;;;;;;;;;8.43;74.76;99851.06;5047488;28;19913;-91
2022/01/03 09:29:34;;;;;;;;;;;;;;;8.13;75.65;99842.41;5048002;28;19924;-86
2022/01/03 09:32:00;;;;;;;;;;;;;;;8.14;76.18;99838.91;5047884;28;20345;-88
2022/01/03 09:34:25;;;;;;;;;;;;;;;8.14;76.46;99841.53;5048466;28;19917;-87
2022/01/03 09:36:50;;;;;;;;;;;;;;;7.76;75.94;99841.63;5048220;28;19964;-87
2022/01/03 09:39:15;;;;;;;;;;;;;;;7.86;77.13;99835.47;5048376;28;19917;-86
2022/01/03 09:41:52;;;;;;;;;;;;;;;8.17;75.98;99830.13;5047851;28;19974;-85
2022/01/03 09:44:17;;;;;;;;;;;;;;;8.39;75.62;99830.97;5047826;28;19948;-84
2022/01/03 09:46:43;;;;;;;;;;;;;;;8.39;73.98;99821.31;5048031;28;19924;-85
2022/01/03 09:49:09;;;;;;;;;;;;;;;8.20;74.00;99804.75;5046988;28;20215;-85
2022/01/03 09:51:35;;;;;;;;;;;;;;;8.19;73.55;99792.47;5046198;28;19924;-86
2022/01/03 09:54:02;;;;;;;;;;;;;;;8.36;74.53;99779.25;5047487;28;19921;-85
2022/01/03 09:56:29;;;;;;;;;;;;;;;8.53;74.91;99773.94;5046733;28;19971;-85
2022/01/03 09:58:55;;;;;;;;;;;;;;;8.31;74.90;99769.63;5046513;28;19929;-91
2022/01/03 10:01:20;;;;;;;;;;;;;;;8.21;75.82;99761.78;5044731;28;19925;-86
2022/01/03 10:03:48;;;;;;;;;;;;;;;8.10;76.72;99760.09;5027307;28;19921;-85
2022/01/03 10:06:17;;;;;;;;;;;;;;;8.07;76.71;99753.97;5027368;28;20051;-85
2022/01/03 10:08:46;;;;;;;;;;;;;;;8.38;77.21;99758.22;5027267;28;20471;-84
2022/01/03 10:11:11;;;;;;;;;;;;;;;8.39;75.62;99745.06;5027189;28;20314;-85
2022/01/03 10:13:37;;;;;;;;;;;;;;;8.57;75.03;99731.00;5026996;28;19921;-84
2022/01/03 10:16:02;;;;;;;;;;;;;;;8.67;74.69;99726.53;5027068;28;19921;-85
2022/01/03 10:18:28;;;;;;;;;;;;;;;8.55;74.89;99719.59;5027422;28;20512;-84
2022/01/03 10:20:54;;;;;;;;;;;;;;;8.18;76.67;99703.13;5027492;28;19921;-83
2022/01/03 10:23:20;;;;;;;;;;;;;;;8.07;76.69;99690.91;5027618;28;19975;-84
2022/01/03 10:41:24;;;;;;;6.67;5.53;;;;;;;9.00;73.26;99615.78;5124003;27;20394;-87
2022/01/03 10:43:58;;;;;;;5.05;4.07;;;;;;;9.45;72.26;99638.13;5123028;28;20736;-85
2022/01/03 10:46:32;;;;;;;4.30;3.90;;;;;;;9.50;70.66;99651.25;5122443;28;20027;-85
2022/01/03 10:49:15;;;;;;;8.98;4.13;;;;;;;9.16;72.47;99629.66;5099078;28;20054;-84
2022/01/03 10:51:41;;;;;;;4.47;4.07;;;;;;;9.31;73.38;99627.75;5103540;28;20092;-84
2022/01/03 10:54:10;;;;;;;3.80;3.45;;;;;;;9.30;73.09;99646.19;5103104;28;20032;-84
2022/01/03 10:56:38;;;;;;;2.55;2.38;;;;;;;9.61;71.79;99659.03;5102425;28;20035;-85
2022/01/03 10:59:25;;;;;;;7.18;6.53;;;;;;;9.58;70.92;99659.91;5102112;28;20050;-84
2022/01/03 11:01:56;;;;;;;7.65;3.80;;;;;;;9.04;73.10;99652.59;5099670;28;20027;-86
2022/01/03 11:04:30;;;;;;;6.20;5.65;;;;;;;9.26;72.56;99647.09;5103074;28;20054;-85
2022/01/03 11:13:17;;;;;;;5.82;3.70;;;;;;;9.64;72.02;99617.72;5103938;28;20092;-84
2022/01/03 11:15:51;;;;;;;4.75;4.15;;;;;;;9.90;72.56;99605.06;5102517;28;20814;-85
2022/01/03 11:18:21;;;;;;;4.78;4.38;;;;;;;9.74;71.71;99594.75;5104534;28;20796;-87
2022/01/03 11:21:11;;;;;;;6.05;5.25;;;;;;;9.82;71.13;99598.16;5104062;28;20023;-84
2022/01/03 11:23:38;;;;;;;6.68;6.07;;;;;;;10.25;69.65;99599.28;5103924;28;20045;-83
2022/01/03 11:26:10;;;;;;;4.78;3.35;;;;;;;10.50;69.96;99591.94;5102444;28;20130;-84
2022/01/03 11:28:36;;;;;;;3.50;2.88;;;;;;;10.57;69.63;99569.81;5103163;28;20044;-84
2022/01/03 11:31:02;;;;;;;6.55;5.95;;;;;;;11.03;68.87;99564.59;5100979;28;20039;-84
2022/01/03 11:33:29;;;;;;;5.55;4.95;;;;;;;11.30;67.85;99568.47;5101765;28;20031;-85
2022/01/03 11:35:58;;;;;;;5.32;4.75;;;;;;;11.38;67.48;99555.13;5101671;28;20107;-85
2022/01/03 11:38:28;;;;;;;5.30;4.80;;;;;;;11.40;67.05;99543.63;5102786;28;20035;-85
2022/01/03 11:40:55;;;;;;;4.68;4.28;;;;;;;11.45;67.34;99539.13;5098036;28;20048;-84
2022/01/03 11:43:21;;;;;;;4.15;2.38;;;;;;;11.63;66.45;99524.66;5089853;28;20409;-85
2022/01/03 11:45:46;;;;;;;4.72;4.30;;;;;;;11.49;65.94;99496.78;5089167;28;20537;-85
2022/01/03 11:48:12;;;;;;;;;;;;;;;11.61;66.25;99521.16;5090115;28;20115;-85
2022/01/03 11:50:38;;;;;;;;;;;;;;;11.74;65.32;99516.47;5088935;28;20381;-86
2022/01/03 11:53:07;;;;;;;3.13;2.83;;;;;;;11.80;64.76;99496.97;5089606;28;19916;-87
2022/01/03 11:55:34;;;;;;;3.55;3.10;;;;;;;11.74;66.13;99491.81;5089796;28;20024;-86
2022/01/03 12:06:01;;;;;;;6.85;6.22;;;;;;;11.95;64.35;99462.25;5107692;28;20594;-89
2022/01/03 12:08:30;;;;;;;5.30;3.72;;;;;;;11.94;65.36;99455.25;5103509;28;20096;-88
2022/01/03 12:11:00;;;;;;;5.18;4.13;;;;;;;11.86;64.75;99440.44;5108343;28;20038;-89
2022/01/03 12:13:55;;;;;;;3.88;3.08;;;;;;;12.13;65.28;99471.53;5108171;28;20028;-87
2022/01/03 12:16:49;;;;;;;5.40;4.65;;;;;;;12.17;64.19;99459.09;5092927;28;20118;-88
2022/01/03 12:19:30;;;;;;;6.95;5.45;;;;;;;12.18;62.97;99443.19;5109832;28;20031;-88
2022/01/03 12:21:59;;;;;;;4.00;3.30;;;;;;;12.33;64.22;99475.47;5107683;28;20556;-88
2022/01/03 12:24:24;;;;;;;3.92;3.55;;;;;;;11.98;65.44;99461.34;5107777;28;20054;-86
2022/01/03 12:27:09;;;;;;;;;;;;;;;11.81;66.73;99451.13;5108439;28;20496;-85
2022/01/03 12:29:58;;;;;;;1.65;1.52;;;;;;;11.60;67.81;99441.94;5106981;28;19936;-83
2022/01/03 12:32:25;;;;;;;3.45;3.03;;;;;;;11.88;67.55;99452.75;5108708;27;20032;-85
2022/01/03 12:35:06;;;;;;;3.75;3.45;;;;;;;11.73;66.89;99447.81;5108140;28;20055;-89
2022/01/03 12:37:34;;;;;;;4.45;3.97;;;;;;;11.48;67.45;99427.25;5103925;28;20031;-89
2022/01/03 12:40:12;;;;;;;2.65;2.45;;;;;;;11.74;67.03;99444.25;5085592;28;20068;-90
2022/01/03 12:45:13;;;;;;;4.00;2.45;;;;;;;10.87;69.43;99411.81;5029806;28;20044;-84
2022/01/03 12:47:39;;;;;;;3.45;3.00;;;;;;;11.30;68.68;99436.44;5031004;28;20083;-85
2022/01/03 12:50:22;;;;;;;4.32;3.58;;;;;;;11.34;67.83;99435.50;5038997;28;20465;-87
2022/01/03 12:52:48;;;;;;;7.68;4.45;;;;;;;11.66;67.36;99436.50;5037629;28;20025;-87
2022/01/03 12:55:52;;;;;;;3.40;2.60;;;;;;;11.62;67.67;99442.78;5013432;28;20044;-88
2022/01/03 12:58:20;;;;;;;11.02;3.25;;;;;;;11.92;67.46;99443.84;5030093;28;20041;-86
2022/01/03 13:00:53;;;;;;;6.70;3.13;;;;;;;11.52;68.35;99413.03;5043768;28;20041;-90
2022/01/03 13:03:43;;;;;;;7.70;4.05;;;;;;;11.53;68.84;99416.59;5060833;28;20040;-87
2022/01/03 13:06:15;;;;;;;5.35;4.47;;;;;;;11.16;69.69;99420.91;5049814;28;20039;-86
2022/01/03 13:08:42;;;;;;;5.13;3.38;;;;;;;11.26;69.20;99451.50;5049289;28;20032;-86
2022/01/03 13:11:13;;;;;;;3.60;2.70;;;;;;;11.32;68.65;99429.34;5047239;28;20036;-86
2022/01/03 13:13:41;;;;;;;6.85;4.80;;;;;;;11.45;68.83;99432.59;5046936;28;20033;-84
2022/01/03 13:16:19;;;;;;;5.53;3.60;;;;;;;11.34;70.27;99437.25;5047164;28;20104;-84
2022/01/03 13:19:06;;;;;;;2.40;2.20;;;;;;;11.43;69.70;99422.06;5047407;28;20095;-84
2022/01/03 13:21:38;;;;;;;6.95;3.05;;;;;;;11.45;69.87;99430.81;5045453;28;20053;-86
2022/01/03 13:24:09;;;;;;;3.63;3.33;;;;;;;11.46;69.57;99411.44;5046290;28;20774;-87